Time;durP1;ratioP1;P1;durP2;ratioP2;P2;SDS_P1;SDS_P2;PMS_P1;PMS_P2;Temp;Humidity;BMP_temperature;BMP_pressure;BME280_temperature;BME280_humidity;BME280_pressure;Samples;Min_cycle;Max_cycle;Signal;HPM_P1;HPM_P2
2022/10/05 00:01:01;;;;;;;35.40;18.00;;;;;;;4.96;82.84;99648.27;87219;1318;98779;-78
2022/10/05 00:03:45;;;;;;;;;;;;;;;;;;;;;
2022/10/05 00:09:43;;;;;;;;;;;;;;;;;;;;;
2022/10/05 00:16:27;;;;;;;26.50;17.30;;;;;;;5.12;82.80;99644.18;86112;1307;543351;-77
2022/10/05 00:19:29;;;;;;;26.20;16.70;;;;;;;5.13;82.86;99642.95;88054;1290;23067;-77
2022/10/05 00:22:33;;;;;;;27.80;18.10;;;;;;;5.13;82.74;99641.21;87180;1298;22949;-78
2022/10/05 00:28:32;;;;;;;34.80;18.90;;;;;;;5.15;82.82;99640.85;86881;1301;22888;-77
2022/10/05 00:31:23;;;;;;;35.60;18.80;;;;;;;5.15;82.68;99636.14;82559;1306;22754;-77
2022/10/05 00:34:10;;;;;;;;;;;;;;;;;;;;;
2022/10/05 00:37:05;;;;;;;;;;;;;;;;;;;;;
2022/10/05 00:39:58;;;;;;;;;;;;;;;;;;;;;
2022/10/05 00:43:11;;;;;;;;;;;;;;;;;;;;;
2022/10/05 00:46:16;;;;;;;31.40;18.10;;;;;;;5.16;83.23;99622.54;86948;1300;22916;-78
2022/10/05 00:49:18;;;;;;;32.50;17.70;;;;;;;5.05;82.86;99612.61;86790;1301;98623;-77
2022/10/05 00:52:24;;;;;;;31.70;18.30;;;;;;;5.16;83.10;99632.29;86164;1312;26819;-77
2022/10/05 00:55:35;;;;;;;28.10;18.10;;;;;;;5.13;83.25;99629.21;85578;1319;97883;-77
2022/10/05 00:58:48;;;;;;;32.90;18.80;;;;;;;5.14;83.12;99633.55;86176;1314;22599;-77
2022/10/05 01:05:25;;;;;;;38.30;19.70;;;;;;;5.13;82.90;99635.30;86877;1303;22576;-77
2022/10/05 01:08:39;;;;;;;35.00;17.70;;;;;;;5.13;83.16;99637.73;87032;1294;22755;-77
2022/10/05 01:11:44;;;;;;;38.20;19.20;;;;;;;5.11;83.40;99634.11;87323;1294;22676;-78
2022/10/05 01:15:05;;;;;;;36.90;19.00;;;;;;;5.08;82.93;99626.67;87304;1295;22650;-77
2022/10/05 01:17:59;;;;;;;39.80;19.60;;;;;;;5.09;83.05;99620.89;87186;1294;98080;-78
2022/10/05 01:21:03;;;;;;;34.80;18.50;;;;;;;5.11;83.33;99628.01;87304;1294;23382;-78
2022/10/05 01:24:08;;;;;;;36.80;19.20;;;;;;;5.08;83.37;99626.83;87246;1294;97546;-77
2022/10/05 01:27:13;;;;;;;43.70;19.90;;;;;;;5.07;83.26;99626.34;87239;1294;22576;-77
2022/10/05 01:30:18;;;;;;;41.90;19.80;;;;;;;5.03;83.17;99620.12;87479;1289;97608;-78
2022/10/05 01:33:20;;;;;;;38.00;19.70;;;;;;;5.01;83.10;99622.43;88718;1281;22748;-78
2022/10/05 01:36:34;;;;;;;31.80;19.50;;;;;;;5.01;83.19;99616.51;88322;1282;98972;-78
2022/10/05 01:39:28;;;;;;;;;;;;;;;;;;;;;
2022/10/05 01:46:10;;;;;;;43.60;21.00;;;;;;;4.87;83.29;99618.08;87863;1287;22746;-78
2022/10/05 01:49:27;;;;;;;37.30;21.40;;;;;;;4.85;83.27;99623.16;87808;1287;97633;-77
2022/10/05 01:52:41;;;;;;;44.40;21.00;;;;;;;4.83;83.60;99616.77;87404;1294;23675;-78
2022/10/05 01:56:00;;;;;;;39.00;18.90;;;;;;;4.81;83.37;99611.92;87670;1291;98218;-78
2022/10/05 01:59:17;;;;;;;40.60;19.40;;;;;;;4.79;83.34;99612.64;87688;1291;23523;-78
2022/10/05 02:02:12;;;;;;;37.10;19.20;;;;;;;4.78;83.73;99606.56;87561;1297;22705;-79
2022/10/05 02:08:29;;;;;;;44.00;22.10;;;;;;;4.76;83.38;99611.45;87453;1298;22616;-78
2022/10/05 02:11:41;;;;;;;50.20;24.80;;;;;;;4.76;83.26;99603.64;87235;1298;24094;-78
2022/10/05 02:14:52;;;;;;;43.50;25.10;;;;;;;4.76;83.49;99613.90;87243;1297;22714;-78
2022/10/05 02:17:34;;;;;;;;;;;;;;;;;;;;;
2022/10/05 02:24:20;;;;;;;51.20;28.00;;;;;;;4.79;83.61;99611.77;86772;1302;543754;-77
2022/10/05 02:27:22;;;;;;;41.20;25.80;;;;;;;4.74;83.55;99605.58;88637;1284;22701;-78
2022/10/05 02:30:24;;;;;;;51.10;25.00;;;;;;;4.69;83.54;99604.08;88274;1289;98404;-79
2022/10/05 02:33:30;;;;;;;50.60;26.10;;;;;;;4.68;83.46;99604.61;87619;1292;24241;-78
2022/10/05 02:36:33;;;;;;;54.50;26.60;;;;;;;4.69;83.66;99607.04;87728;1294;98882;-78
2022/10/05 02:39:47;;;;;;;50.30;24.10;;;;;;;4.72;83.79;99608.91;83452;1294;22566;-78
2022/10/05 02:43:08;;;;;;;44.10;23.20;;;;;;;4.69;83.68;99598.33;87559;1294;97966;-78
2022/10/05 02:46:25;;;;;;;45.20;23.10;;;;;;;4.63;83.43;99590.59;87702;1294;22602;-79
2022/10/05 02:52:50;;;;;;;36.10;23.20;;;;;;;4.68;83.49;99585.29;87424;1299;22737;-78
2022/10/05 03:02:33;;;;;;;47.40;21.30;;;;;;;4.68;83.50;99586.86;86959;1307;24291;-79
2022/10/05 03:05:33;;;;;;;;;;;;;;;;;;;;;
2022/10/05 03:09:03;;;;;;;;;;;;;;;;;;;;;
2022/10/05 03:12:31;;;;;;;44.80;20.60;;;;;;;4.57;83.65;99583.88;87413;1302;22604;-79
2022/10/05 03:15:26;;;;;;;60.40;21.30;;;;;;;4.56;83.59;99588.25;87741;1294;24229;-79
2022/10/05 03:21:30;;;;;;;65.40;21.40;;;;;;;4.55;83.86;99585.11;87446;1299;22603;-79
2022/10/05 03:24:35;;;;;;;41.10;21.40;;;;;;;4.55;83.75;99585.11;87540;1297;98903;-78
2022/10/05 03:27:49;;;;;;;31.30;19.00;;;;;;;4.53;83.80;99576.29;87307;1293;22688;-78
2022/10/05 03:30:57;;;;;;;38.10;19.60;;;;;;;4.49;83.57;99573.19;87728;1293;97405;-78
2022/10/05 03:37:19;;;;;;;46.00;21.40;;;;;;;4.50;83.85;99600.34;87072;1297;98584;-77
2022/10/05 03:40:39;;;;;;;;;;;;;;;;;;;;;
2022/10/05 03:47:13;;;;;;;46.00;23.80;;;;;;;4.55;84.23;99612.95;87916;1291;24286;-78
2022/10/05 03:49:53;;;;;;;59.20;23.10;;;;;;;4.55;84.07;99611.75;87417;1297;99014;-79
2022/10/05 03:56:39;;;;;;;42.00;21.80;;;;;;;4.54;84.09;99620.12;87598;1293;97364;-79
2022/10/05 03:59:33;;;;;;;;;;;;;;;;;;;;;
2022/10/05 04:02:31;;;;;;;;;;;;;;;;;;;;;
2022/10/05 04:05:50;;;;;;;44.90;23.00;;;;;;;4.54;84.06;99603.23;87602;1297;22618;-79
2022/10/05 04:11:56;;;;;;;40.40;22.00;;;;;;;4.52;83.88;99593.00;87957;1291;24287;-80
2022/10/05 04:15:05;;;;;;;43.90;22.20;;;;;;;4.52;84.05;99594.71;87908;1291;22621;-79
2022/10/05 04:18:13;;;;;;;36.90;19.60;;;;;;;4.47;83.81;99572.35;88246;1291;22894;-79
2022/10/05 04:21:26;;;;;;;44.50;21.50;;;;;;;4.42;83.92;99563.20;87661;1297;24220;-78
2022/10/05 04:24:29;;;;;;;36.70;23.40;;;;;;;4.39;83.91;99557.16;87419;1300;22853;-78
2022/10/05 04:27:59;;;;;;;46.30;24.10;;;;;;;4.40;84.19;99561.48;87436;1299;22618;-79
2022/10/05 04:31:00;;;;;;;49.30;24.50;;;;;;;4.43;84.17;99571.19;87398;1303;22745;-78
2022/10/05 04:37:05;;;;;;;38.40;23.00;;;;;;;4.38;84.32;99554.04;87343;1299;98959;-80
2022/10/05 04:40:34;;;;;;;45.70;22.40;;;;;;;4.37;84.47;99554.56;87687;1296;23544;-78
2022/10/05 04:43:39;;;;;;;40.30;23.10;;;;;;;4.36;83.91;99562.41;87308;1303;98765;-79
2022/10/05 04:46:54;;;;;;;51.00;26.70;;;;;;;4.37;84.06;99581.89;87282;1302;24082;-80
2022/10/05 04:49:56;;;;;;;52.70;27.00;;;;;;;4.37;84.05;99579.98;87429;1302;97739;-79
2022/10/05 04:56:34;;;;;;;56.50;25.90;;;;;;;4.25;84.10;99556.81;87424;1303;99136;-79
2022/10/05 05:03:04;;;;;;;50.30;24.80;;;;;;;4.25;84.21;99560.48;88072;1294;23819;-79
2022/10/05 05:06:12;;;;;;;58.10;28.60;;;;;;;4.23;84.14;99561.70;87933;1293;22622;-79
2022/10/05 05:09:35;;;;;;;60.00;27.00;;;;;;;4.25;83.92;99564.64;87959;1293;22662;-81
2022/10/05 05:12:51;;;;;;;46.70;26.90;;;;;;;4.23;84.33;99560.84;87587;1297;22588;-78
2022/10/05 05:15:52;;;;;;;;;;;;;;;;;;;;;
2022/10/05 05:22:37;;;;;;;63.30;26.70;;;;;;;4.31;84.32;99575.35;88009;1293;22722;-78
2022/10/05 05:29:10;;;;;;;61.20;28.50;;;;;;;4.35;84.31;99572.34;88015;1292;22616;-80
2022/10/05 05:32:24;;;;;;;61.00;29.60;;;;;;;4.38;84.64;99570.04;88031;1294;97585;-79
2022/10/05 05:39:11;;;;;;;51.70;29.70;;;;;;;4.48;84.77;99575.29;88743;1282;98254;-80
2022/10/05 05:42:16;;;;;;;62.90;27.60;;;;;;;4.55;84.78;99582.34;88493;1287;23876;-79
2022/10/05 05:48:35;;;;;;;49.70;30.20;;;;;;;4.72;84.88;99581.23;88530;1287;22641;-80
2022/10/05 05:58:04;;;;;;;68.80;27.10;;;;;;;4.87;84.91;99559.25;88256;1290;24708;-79
2022/10/05 06:01:18;;;;;;;172.30;34.80;;;;;;;4.92;84.79;99560.91;88237;1291;97920;-80
2022/10/05 06:04:13;;;;;;;160.10;33.90;;;;;;;5.00;85.04;99547.38;87762;1291;22769;-79
2022/10/05 06:07:17;;;;;;;;;;;;;;;;;;;;;
2022/10/05 06:10:23;;;;;;;142.00;33.80;;;;;;;5.17;85.04;99568.69;87797;1292;22887;-80
2022/10/05 06:13:28;;;;;;;97.50;30.20;;;;;;;5.27;84.91;99577.74;87134;1297;97923;-80
2022/10/05 06:16:36;;;;;;;94.40;31.40;;;;;;;5.39;85.21;99578.45;86870;1302;22590;-78
2022/10/05 06:19:44;;;;;;;87.30;30.20;;;;;;;5.50;85.23;99587.12;86999;1299;97568;-80
2022/10/05 06:23:04;;;;;;;69.20;27.20;;;;;;;5.60;85.17;99596.17;87110;1297;24124;-80
2022/10/05 06:26:16;;;;;;;62.40;28.00;;;;;;;5.73;85.47;99589.50;87168;1297;97862;-80
2022/10/05 06:36:14;;;;;;;65.50;29.30;;;;;;;6.05;85.43;99602.16;88708;1281;23076;-80
2022/10/05 06:42:35;;;;;;;83.60;26.90;;;;;;;6.27;85.43;99609.94;88937;1281;22619;-80
2022/10/05 06:45:05;;;;;;;83.60;26.90;;;;;;;6.40;85.57;99615.44;84632;1284;5427964;-78
2022/10/05 06:48:22;;;;;;;47.20;23.60;;;;;;;6.56;85.50;99611.25;88596;1278;22858;-79
2022/10/05 06:51:23;;;;;;;;;;;;;;;;;;;;;
2022/10/05 06:54:27;;;;;;;;;;;;;;;;;;;;;
2022/10/05 06:57:44;;;;;;;25.40;14.70;;;;;;;7.14;85.70;99585.12;87560;1293;22867;-79
2022/10/05 07:00:47;;;;;;;22.70;13.70;;;;;;;7.32;85.58;99588.90;87317;1294;22586;-79
2022/10/05 07:07:33;;;;;;;21.70;12.70;;;;;;;7.62;85.41;99597.75;87033;1298;24201;-76
2022/10/05 07:11:00;;;;;;;;;;;;;;;;;;;;;
2022/10/05 07:14:15;;;;;;;19.50;13.10;;;;;;;7.96;85.51;99607.86;86823;1303;97875;-76
2022/10/05 07:16:49;;;;;;;26.90;12.80;;;;;;;8.14;85.39;99605.78;86833;1304;22990;-77
2022/10/05 07:20:00;;;;;;;25.10;12.90;;;;;;;8.28;85.22;99600.15;86383;1312;97478;-77
2022/10/05 07:23:09;;;;;;;18.40;11.30;;;;;;;8.44;85.23;99599.88;86597;1309;22610;-77
2022/10/05 07:25:52;;;;;;;22.10;11.90;;;;;;;8.61;85.26;99590.62;86161;1315;99140;-77
2022/10/05 07:28:21;;;;;;;23.30;11.10;;;;;;;8.78;85.35;99584.49;86295;1315;22686;-77
2022/10/05 07:31:35;;;;;;;23.50;12.20;;;;;;;8.92;85.20;99576.38;86299;1312;98310;-76
2022/10/05 07:34:45;;;;;;;24.00;12.40;;;;;;;9.06;85.15;99578.02;86464;1309;24350;-76
2022/10/05 07:40:38;;;;;;;;;;;;;;;;;;;;;
2022/10/05 07:44:15;;;;;;;25.20;13.00;;;;;;;9.33;84.77;99578.36;86459;1306;97603;-74
2022/10/05 07:47:20;;;;;;;;;;;;;;;;;;;;;
2022/10/05 07:50:05;;;;;;;35.10;14.10;;;;;;;9.52;84.68;99565.63;86148;1306;98595;-74
2022/10/05 07:56:20;;;;;;;20.00;10.90;;;;;;;9.73;84.76;99579.11;86148;1309;97847;-72
2022/10/05 07:59:23;;;;;;;26.90;11.80;;;;;;;9.81;84.71;99579.36;86228;1306;22884;-75
2022/10/05 08:02:15;;;;;;;22.00;10.70;;;;;;;9.93;84.65;99577.52;86143;1303;99602;-73
2022/10/05 08:05:31;;;;;;;13.70;10.20;;;;;;;9.99;84.33;99571.16;86493;1303;22602;-76
2022/10/05 08:08:32;;;;;;;16.90;10.20;;;;;;;10.16;84.55;99570.91;86024;1306;99396;-76
2022/10/05 08:14:37;;;;;;;22.90;10.20;;;;;;;10.38;84.44;99567.83;86150;1303;99108;-75
2022/10/05 08:17:41;;;;;;;14.70;9.90;;;;;;;10.57;84.40;99573.09;86648;1297;24248;-76
2022/10/05 08:20:41;;;;;;;20.80;10.00;;;;;;;10.82;84.46;99572.63;86581;1297;98658;-75
2022/10/05 08:23:13;;;;;;;14.10;9.00;;;;;;;11.04;84.37;99570.02;86707;1297;22602;-73
2022/10/05 08:26:10;;;;;;;15.40;9.30;;;;;;;11.29;84.41;99569.89;86682;1297;97559;-75
2022/10/05 08:29:24;;;;;;;16.50;9.20;;;;;;;11.53;84.11;99567.45;86715;1297;22701;-76
2022/10/05 08:32:21;;;;;;;;;;;;;;;;;;;;;
2022/10/05 08:35:26;;;;;;;14.20;8.70;;;;;;;11.99;83.79;99573.63;86112;1306;22748;-74
2022/10/05 08:38:20;;;;;;;;;;;;;;;;;;;;;
2022/10/05 08:41:33;;;;;;;;;;;;;;;;;;;;;
2022/10/05 08:44:48;;;;;;;16.10;7.40;;;;;;;12.72;83.33;99581.55;85936;1310;98710;-74
2022/10/05 08:48:04;;;;;;;21.80;7.40;;;;;;;12.86;82.95;99579.64;86350;1306;22705;-74
2022/10/05 08:51:41;;;;;;;11.50;6.40;;;;;;;12.95;82.78;99578.37;86107;1306;97608;-75
2022/10/05 08:57:45;;;;;;;18.70;6.40;;;;;;;13.15;82.74;99586.38;85546;1310;543217;-74
2022/10/05 09:00:55;;;;;;;;;;;;;;;;;;;;;
2022/10/05 09:04:20;;;;;;;9.30;6.50;;;;;;;13.17;82.45;99571.48;87453;1290;22659;-76
2022/10/05 09:07:34;;;;;;;15.30;5.90;;;;;;;13.23;82.15;99567.48;87513;1290;22781;-74
2022/10/05 09:11:10;;;;;;;14.80;6.40;;;;;;;13.22;82.24;99563.11;87082;1293;22618;-74
2022/10/05 09:14:00;;;;;;;12.30;5.80;;;;;;;13.26;82.05;99570.69;86820;1297;99571;-76
2022/10/05 09:16:12;;;;;;;8.10;5.90;;;;;;;13.30;81.90;99577.53;86912;1303;24601;-74
2022/10/05 09:19:17;;;;;;;8.80;5.80;;;;;;;13.31;81.84;99579.05;86985;1300;22574;-74
2022/10/05 09:22:30;;;;;;;11.00;5.80;;;;;;;13.34;81.93;99579.46;86672;1303;23670;-74
2022/10/05 09:25:14;;;;;;;;;;;;;;;;;;;;;
2022/10/05 09:28:09;;;;;;;11.60;5.50;;;;;;;13.42;81.70;99590.36;87112;1300;25358;-74
2022/10/05 09:30:45;;;;;;;15.30;5.80;;;;;;;13.45;81.67;99579.63;87075;1304;24373;-75
2022/10/05 09:33:44;;;;;;;16.90;5.40;;;;;;;13.52;81.69;99581.24;86748;1303;22867;-75
2022/10/05 09:37:01;;;;;;;16.90;5.60;;;;;;;13.58;81.66;99573.89;86708;1303;22544;-74
2022/10/05 09:40:09;;;;;;;16.10;5.00;;;;;;;13.66;81.46;99573.63;86340;1303;22640;-74
2022/10/05 09:46:13;;;;;;;14.40;5.50;;;;;;;13.80;81.39;99567.99;86896;1294;22603;-75
2022/10/05 09:49:44;;;;;;;10.30;5.80;;;;;;;13.85;81.30;99565.80;86967;1294;25345;-74
2022/10/05 09:53:04;;;;;;;15.70;5.00;;;;;;;13.89;81.03;99573.55;86944;1294;23444;-73
2022/10/05 09:56:03;;;;;;;;;;;;;;;;;;;;;
2022/10/05 09:59:15;;;;;;;;;;;;;;;;;;;;;
2022/10/05 10:02:15;;;;;;;15.90;5.20;;;;;;;14.21;81.02;99579.81;86605;1300;99366;-74
2022/10/05 10:05:44;;;;;;;14.20;5.10;;;;;;;14.29;80.91;99579.35;86268;1306;25247;-74
2022/10/05 10:08:40;;;;;;;10.40;5.30;;;;;;;14.43;80.82;99574.89;86498;1303;98586;-76
2022/10/05 10:12:02;;;;;;;;;;;;;;;;;;;;;
2022/10/05 10:14:50;;;;;;;10.90;5.50;;;;;;;14.50;80.14;99570.31;86516;1309;97390;-75
2022/10/05 10:18:12;;;;;;;14.30;5.00;;;;;;;14.58;80.63;99569.98;86651;1309;23177;-74
2022/10/05 10:21:16;;;;;;;8.70;4.80;;;;;;;14.72;80.42;99566.98;86862;1308;97418;-74
2022/10/05 10:24:20;;;;;;;14.70;5.80;;;;;;;14.81;80.30;99566.98;85977;1314;22684;-74
2022/10/05 10:27:26;;;;;;;7.60;4.70;;;;;;;14.91;80.43;99565.21;85950;1314;97452;-76
2022/10/05 10:30:09;;;;;;;6.50;4.70;;;;;;;14.99;80.25;99557.13;86028;1313;23977;-75
2022/10/05 10:33:12;;;;;;;;;;;;;;;;;;;;;
2022/10/05 10:36:26;;;;;;;8.60;4.80;;;;;;;15.08;80.06;99554.14;86282;1308;23069;-75
2022/10/05 10:39:05;;;;;;;7.80;4.40;;;;;;;15.15;79.99;99548.61;86654;1303;97413;-75
2022/10/05 10:42:15;;;;;;;19.60;5.90;;;;;;;15.22;79.86;99554.05;86614;1297;22619;-75
2022/10/05 10:45:16;;;;;;;;;;;;;;;;;;;;;
2022/10/05 10:48:23;;;;;;;;;;;;;;;;;;;;;
2022/10/05 10:51:18;;;;;;;16.90;5.20;;;;;;;15.61;79.55;99559.05;86135;1303;99227;-74
2022/10/05 10:54:39;;;;;;;7.90;4.40;;;;;;;15.78;79.40;99562.78;86424;1303;22592;-73
2022/10/05 10:57:08;;;;;;;15.90;4.50;;;;;;;15.91;79.07;99561.70;86654;1304;22606;-75
2022/10/05 11:00:28;;;;;;;5.60;4.30;;;;;;;15.96;78.91;99556.27;86449;1303;23147;-75
2022/10/05 11:03:28;;;;;;;16.70;4.90;;;;;;;16.05;78.60;99553.42;87472;1289;98404;-74
2022/10/05 11:06:36;;;;;;;10.20;4.70;;;;;;;16.11;78.54;99555.83;87033;1294;23541;-75
2022/10/05 11:12:43;;;;;;;13.20;6.00;;;;;;;16.30;78.56;99555.91;85810;1310;544213;-74
2022/10/05 11:15:32;;;;;;;7.20;4.80;;;;;;;16.27;78.29;99551.16;88189;1283;23959;-75
2022/10/05 11:18:52;;;;;;;9.30;5.60;;;;;;;16.30;78.34;99550.77;88017;1283;24313;-73
2022/10/05 11:21:44;;;;;;;12.70;5.20;;;;;;;16.34;78.24;99549.80;87880;1289;22673;-75
2022/10/05 11:24:37;;;;;;;;;;;;;;;;;;;;;
2022/10/05 11:27:34;;;;;;;;;;;;;;;;;;;;;
2022/10/05 11:30:36;;;;;;;;;;;;;;;;;;;;;
2022/10/05 11:36:45;;;;;;;9.70;5.10;;;;;;;16.47;77.48;99539.79;86704;1297;25936;-74
2022/10/05 11:39:47;;;;;;;13.20;5.30;;;;;;;16.46;77.62;99538.06;86952;1297;25276;-77
2022/10/05 11:42:43;;;;;;;;;;;;;;;;;;;;;
2022/10/05 11:45:52;;;;;;;;;;;;;;;;;;;;;
2022/10/05 11:48:59;;;;;;;5.80;5.00;;;;;;;16.45;77.35;99537.98;86197;1306;25448;-74
2022/10/05 11:52:03;;;;;;;8.80;5.30;;;;;;;16.48;77.36;99537.77;86223;1308;24574;-74
2022/10/05 11:55:09;;;;;;;7.80;4.80;;;;;;;16.49;77.28;99533.81;86174;1306;24192;-74
2022/10/05 11:58:14;;;;;;;13.70;4.90;;;;;;;16.48;77.30;99532.59;85902;1312;22727;-75
2022/10/05 12:01:18;;;;;;;;;;;;;;;;;;;;;
2022/10/05 12:04:20;;;;;;;10.60;4.50;;;;;;;16.43;76.96;99527.21;86345;1303;24036;-73
2022/10/05 12:07:32;;;;;;;10.80;4.90;;;;;;;16.43;76.83;99523.36;86695;1300;26542;-74
2022/10/05 12:10:34;;;;;;;10.50;3.80;;;;;;;16.43;76.64;99521.58;86686;1300;22679;-74
2022/10/05 12:13:32;;;;;;;9.10;4.10;;;;;;;16.42;76.55;99517.54;86673;1303;22666;-74
2022/10/05 12:16:41;;;;;;;;;;;;;;;;;;;;;
2022/10/05 12:19:37;;;;;;;;;;;;;;;;;;;;;
2022/10/05 12:22:02;;;;;;;11.30;4.60;;;;;;;16.41;76.37;99512.31;86032;1306;22766;-76
2022/10/05 12:25:04;;;;;;;;;;;;;;;;;;;;;
2022/10/05 12:27:59;;;;;;;7.90;4.20;;;;;;;16.41;75.94;99508.79;86216;1303;97275;-74
2022/10/05 12:31:02;;;;;;;;;;;;;;;;;;;;;
2022/10/05 12:34:12;;;;;;;13.70;4.20;;;;;;;16.42;76.03;99509.75;86453;1303;98864;-74
2022/10/05 12:37:08;;;;;;;10.10;4.50;;;;;;;16.45;75.99;99505.34;86927;1297;22773;-74
2022/10/05 12:40:02;;;;;;;12.30;4.30;;;;;;;16.48;75.93;99501.60;86800;1297;22697;-75
2022/10/05 12:42:44;;;;;;;9.80;3.40;;;;;;;16.50;76.08;99500.90;86709;1301;22607;-75
2022/10/05 12:45:42;;;;;;;13.60;3.90;;;;;;;16.55;76.00;99499.59;86524;1311;97907;-74
2022/10/05 12:51:21;;;;;;;;;;;;;;;16.58;75.64;99495.09;85268;1318;98371;-75
2022/10/05 12:54:37;;;;;;;10.90;4.10;;;;;;;16.60;75.63;99498.48;85170;1320;22630;-74
2022/10/05 12:57:28;;;;;;;;;;;;;;;;;;;;;
2022/10/05 13:00:37;;;;;;;;;;;;;;;;;;;;;
2022/10/05 13:03:24;;;;;;;9.80;4.20;;;;;;;16.60;75.59;99481.16;85440;1316;99142;-76
2022/10/05 13:06:19;;;;;;;12.50;4.20;;;;;;;16.60;75.54;99474.05;85210;1318;22536;-75
2022/10/05 13:09:26;;;;;;;;;;;;;;;;;;;;;
2022/10/05 13:12:03;;;;;;;6.20;3.90;;;;;;;16.62;75.44;99478.31;85428;1317;22832;-77
2022/10/05 13:15:02;;;;;;;7.70;4.40;;;;;;;16.64;75.21;99476.98;85242;1321;97472;-76
2022/10/05 13:17:52;;;;;;;;;;;;;;;;;;;;;
2022/10/05 13:20:26;;;;;;;;;;;;;;;;;;;;;
2022/10/05 13:23:08;;;;;;;;;;;;;;;;;;;;;
2022/10/05 13:26:05;;;;;;;11.90;4.00;;;;;;;16.68;74.97;99472.59;86207;1311;98444;-76
2022/10/05 13:28:52;;;;;;;9.20;3.90;;;;;;;16.68;74.91;99476.16;86392;1307;25886;-77
2022/10/05 13:31:12;;;;;;;8.80;4.10;;;;;;;16.68;74.86;99477.78;86515;1300;25306;-74
2022/10/05 13:33:49;;;;;;;13.20;4.40;;;;;;;16.65;74.83;99476.20;86624;1297;98589;-74
2022/10/05 13:36:32;;;;;;;5.80;4.50;;;;;;;16.63;74.78;99479.02;86714;1299;22631;-74
2022/10/05 13:39:26;;;;;;;12.50;4.50;;;;;;;16.61;74.92;99482.30;86973;1294;97274;-74
2022/10/05 13:42:51;;;;;;;10.90;4.60;;;;;;;16.58;74.93;99470.64;87619;1286;24280;-75
2022/10/05 13:45:53;;;;;;;6.00;4.60;;;;;;;16.53;74.96;99466.15;87538;1285;98754;-75
2022/10/05 13:48:45;;;;;;;13.00;4.90;;;;;;;16.48;74.76;99466.62;87710;1287;23609;-75
2022/10/05 13:51:27;;;;;;;9.00;4.80;;;;;;;16.44;74.87;99463.69;87589;1287;98749;-75
2022/10/05 13:54:24;;;;;;;;;;;;;;;;;;;;;
2022/10/05 13:57:19;;;;;;;10.30;4.60;;;;;;;16.37;74.92;99462.20;87994;1284;97372;-75
2022/10/05 14:00:16;;;;;;;10.50;3.50;;;;;;;16.32;74.62;99463.02;88285;1281;22724;-75
2022/10/05 14:03:00;;;;;;;7.30;3.30;;;;;;;16.27;74.24;99464.41;88191;1281;98686;-75
2022/10/05 14:05:54;;;;;;;12.50;3.10;;;;;;;16.23;74.23;99459.35;88377;1281;24130;-72
2022/10/05 14:08:29;;;;;;;4.20;2.40;;;;;;;16.20;74.19;99450.87;88048;1282;98470;-75
2022/10/05 14:11:02;;;;;;;;;;;;;;;;;;;;;
2022/10/05 14:14:20;;;;;;;9.90;2.70;;;;;;;16.13;74.14;99443.66;88022;1283;22723;-75
2022/10/05 14:17:02;;;;;;;8.30;3.20;;;;;;;16.07;74.06;99439.96;88154;1281;27526;-74
2022/10/05 14:20:03;;;;;;;9.10;2.50;;;;;;;16.05;74.06;99439.44;88137;1281;22627;-75
2022/10/05 14:23:00;;;;;;;8.20;2.60;;;;;;;15.98;73.90;99435.08;87592;1287;22618;-75
2022/10/05 14:25:52;;;;;;;;;;;;;;;;;;;;;
2022/10/05 14:28:42;;;;;;;;;;;;;;;;;;;;;
2022/10/05 14:31:56;;;;;;;;;;;;;;;;;;;;;
2022/10/05 14:35:11;;;;;;;5.70;2.90;;;;;;;15.84;73.78;99427.98;86492;1300;23538;-74
2022/10/05 14:38:05;;;;;;;4.70;2.60;;;;;;;15.78;73.82;99427.61;86533;1299;25472;-75
2022/10/05 14:41:02;;;;;;;6.50;3.00;;;;;;;15.74;73.93;99430.16;86304;1303;23413;-74
2022/10/05 14:43:39;;;;;;;31.80;4.90;;;;;;;15.69;73.84;99433.66;86275;1303;24048;-75
2022/10/05 14:46:57;;;;;;;3.90;2.70;;;;;;;15.65;73.90;99437.80;86226;1303;22740;-75
2022/10/05 14:49:46;;;;;;;;;;;;;;;;;;;;;
2022/10/05 14:52:52;;;;;;;7.70;3.40;;;;;;;15.53;74.45;99439.05;85895;1309;26129;-76
2022/10/05 14:55:55;;;;;;;8.00;2.90;;;;;;;15.45;74.38;99434.90;85861;1309;23356;-75
2022/10/05 14:59:05;;;;;;;;;;;;;;;;;;;;;
2022/10/05 15:02:06;;;;;;;12.70;3.30;;;;;;;15.30;74.16;99425.73;86390;1303;24390;-75
2022/10/05 15:05:13;;;;;;;3.80;3.30;;;;;;;15.25;74.26;99419.66;86998;1299;22611;-75
2022/10/05 15:08:04;;;;;;;6.00;3.40;;;;;;;15.20;74.29;99415.56;86865;1297;22758;-76
2022/10/05 15:11:16;;;;;;;15.30;3.30;;;;;;;15.15;74.20;99412.48;87008;1294;22649;-74
2022/10/05 15:13:51;;;;;;;8.20;3.20;;;;;;;15.10;74.34;99408.16;87368;1287;22683;-75
2022/10/05 15:16:28;;;;;;;;;;;;;;;;;;;;;
2022/10/05 15:19:30;;;;;;;;;;;;;;;;;;;;;
2022/10/05 15:22:33;;;;;;;;;;;;;;;;;;;;;
2022/10/05 15:25:14;;;;;;;;;;;;;;;;;;;;;
2022/10/05 15:27:56;;;;;;;;;;;;;;;;;;;;;
2022/10/05 15:30:34;;;;;;;;;;;;;;;14.91;74.57;99404.54;88184;1281;24678;-75
2022/10/05 15:33:46;;;;;;;20.10;4.60;;;;;;;14.85;74.67;99402.94;88125;1281;84878;-74
2022/10/05 15:36:57;;;;;;;16.50;4.60;;;;;;;14.80;74.71;99404.48;88225;1281;22597;-76
2022/10/05 15:39:52;;;;;;;12.40;4.00;;;;;;;14.72;74.77;99398.90;87351;1287;97491;-74
2022/10/05 15:42:33;;;;;;;14.10;4.30;;;;;;;14.65;74.65;99398.08;87414;1288;23127;-75
2022/10/05 15:45:40;;;;;;;20.30;4.40;;;;;;;14.59;74.97;99397.52;87666;1288;99208;-76
2022/10/05 15:51:31;;;;;;;16.80;5.90;;;;;;;14.41;75.01;99396.77;86494;1303;98498;-75
2022/10/05 15:57:19;;;;;;;33.90;11.20;;;;;;;14.23;75.15;99391.63;86739;1296;97598;-76
2022/10/05 16:00:05;;;;;;;25.00;6.40;;;;;;;14.12;75.29;99393.44;86811;1296;23604;-76
2022/10/05 16:02:24;;;;;;;56.80;6.70;;;;;;;14.04;75.53;99400.77;86670;1300;98739;-76
2022/10/05 16:08:49;;;;;;;48.20;7.10;;;;;;;13.97;75.34;99402.24;86722;1300;23710;-75
2022/10/05 16:10:56;;;;;;;43.70;7.60;;;;;;;13.73;75.52;99396.29;86732;1300;24358;-76
2022/10/05 16:14:18;;;;;;;64.80;7.60;;;;;;;13.63;75.64;99398.62;86371;1303;26280;-74
2022/10/05 16:17:00;;;;;;;62.90;8.00;;;;;;;13.45;75.42;99394.11;86160;1306;24441;-78
2022/10/05 16:19:53;;;;;;;70.10;7.60;;;;;;;13.32;75.50;99396.69;86281;1303;22672;-77
2022/10/05 16:23:16;;;;;;;69.40;7.80;;;;;;;13.18;75.55;99393.88;86724;1303;22690;-76
2022/10/05 16:25:56;;;;;;;53.80;7.40;;;;;;;13.06;75.70;99391.89;86632;1300;22639;-77
2022/10/05 16:28:18;;;;;;;68.50;8.60;;;;;;;13.00;75.92;99389.54;87801;1297;22739;-77
2022/10/05 16:34:40;;;;;;;;;;;;;;;;;;;;;
2022/10/05 16:38:39;;;;;;;43.40;6.50;;;;;;;12.83;76.10;99391.27;85982;1312;542935;-75
2022/10/05 16:41:33;;;;;;;33.70;6.20;;;;;;;12.74;76.24;99383.79;88765;1285;23404;-77
2022/10/05 16:44:10;;;;;;;48.90;6.10;;;;;;;12.70;76.36;99379.39;88085;1286;22721;-76
2022/10/05 16:47:16;;;;;;;30.50;7.70;;;;;;;12.64;76.25;99375.83;87867;1289;24641;-76
2022/10/05 16:50:20;;;;;;;20.70;6.10;;;;;;;12.60;76.46;99379.73;87733;1289;22586;-75
2022/10/05 16:52:25;;;;;;;25.20;6.90;;;;;;;12.52;76.46;99374.13;87112;1292;25269;-74
2022/10/05 16:55:29;;;;;;;37.20;6.40;;;;;;;12.54;76.66;99379.68;87407;1293;22573;-77
2022/10/05 16:58:18;;;;;;;38.20;6.20;;;;;;;12.52;76.60;99383.47;86885;1298;98362;-74
2022/10/05 17:01:51;;;;;;;21.80;5.70;;;;;;;12.49;76.70;99377.98;87924;1306;22636;-75
2022/10/05 17:05:04;;;;;;;13.90;5.60;;;;;;;12.49;76.64;99380.98;87268;1313;97053;-77
2022/10/05 17:08:10;;;;;;;13.10;5.20;;;;;;;12.44;76.67;99375.77;86715;1312;24383;-76
2022/10/05 17:11:18;;;;;;;13.70;5.70;;;;;;;12.41;76.71;99370.27;85473;1322;25966;-75
2022/10/05 17:14:20;;;;;;;14.70;5.20;;;;;;;12.38;76.72;99369.19;85335;1323;22632;-76
2022/10/05 17:17:30;;;;;;;19.90;5.60;;;;;;;12.36;76.87;99372.25;85422;1321;26002;-76
2022/10/05 17:20:40;;;;;;;17.80;5.60;;;;;;;12.35;76.96;99371.11;85121;1321;22672;-76
2022/10/05 17:23:36;;;;;;;23.70;5.90;;;;;;;12.30;76.99;99369.93;85391;1321;22731;-76
2022/10/05 17:26:17;;;;;;;30.30;6.80;;;;;;;12.27;77.03;99371.31;85549;1317;22625;-77
2022/10/05 17:28:50;;;;;;;;;;;;;;;;;;;;;
2022/10/05 17:31:48;;;;;;;14.70;6.50;;;;;;;12.18;77.24;99363.45;85689;1314;24313;-76
2022/10/05 17:35:07;;;;;;;13.50;6.40;;;;;;;12.14;77.09;99359.80;85719;1315;98457;-76
2022/10/05 17:38:44;;;;;;;15.60;6.10;;;;;;;12.08;77.17;99354.95;85918;1306;22640;-75
2022/10/05 17:41:52;;;;;;;13.80;5.90;;;;;;;12.01;77.12;99352.27;86705;1300;22585;-75
2022/10/05 17:45:11;;;;;;;17.40;6.60;;;;;;;11.97;77.32;99355.67;86932;1298;22938;-75
2022/10/05 17:47:58;;;;;;;27.80;6.20;;;;;;;11.91;77.33;99362.98;87027;1288;22753;-76
2022/10/05 18:00:08;;;;;;;;;;;;;;;;;;;;;
2022/10/05 18:02:52;;;;;;;142.70;14.00;;;;;;;11.62;77.60;99367.27;87476;1287;99103;-76
2022/10/05 18:09:16;;;;;;;;;;;;;;;;;;;;;